Mahanoy Plane, Pennsylvania
Current Conditions -  °F | °C
As of 3:15 PM on Wednesday 28 Jan 2015 (Local Time) from KHZL Reporting Station
Clear Clear  
Wind Chill: 16°   Ceiling: Unl
Heat Index: 28°   Visibility: 10mi
Dew Point:   Wind: 17mph
Humidity: 31%   Direction: 310°NW
Pressure: 30.11"   Gusts: 24mph
Location:  40.79°N, 76.24°W
Report Text: KHZL 282015Z AUTO 31015G21KT 10SM CLR M02/M17 A3011 RMK AO2
Loading
Personal Weather Stations






























Interactive Weather Map New forecast layout! Learn more

10-Day Weather Forecast

Advertisements
Track Severe Weather on mobile